My Meet Scores
Brooke Frawley, Gym Kinetics Gymnastics - MyMeetScores.com
Top100 | Top Teams | Upcoming Meets | Completed Meets | Latest | Add Scores | Help| Support | Bookmark and Share

Brooke Frawley, Gym Kinetics Gymnastics
Personal Bests
LevelVault BarsBeamFloorAA
39.3759.225 9.2509.12536.800
48.7509.200 9.3508.80035.725
XG9.5009.600 9.5759.40037.050
XP9.3259.100 9.6009.30037.050
Meet Scores
Date Meet Team Session Level Division Vault Bars Beam Floor AA
2019-04-05 2019 Illinois XG, XP, XD State Championships Gym Kinetics Gymnastics 2 XP Sr B 9.100 15 8.525 16 9.500 4 9.125 18T 36.250 14
2019-03-01 NGCD Academy's 2019 Flip'r Invitational Gym Kinetics Gymnastics 1 XP Sr 9.050 4T 9.100 3 9.600 1 9.300 2 37.050 2
2019-02-23 Kinetic Classic 2019 Gym Kinetics Gymnastics 1 XP Older 8.775 6 8.900 3 9.300 2T 8.850 8T 35.825 4
2019-02-08 Midwest Twisters Harley Meet Womens Gym Kinetics Gymnastics T01 XP 14 yrs. 9.325 3T 8.750 5 9.425 1T 8.900 7T 36.400 3
2019-01-18 2019 Bravo Classic Gym Kinetics Gymnastics 3A XP Sr 8.575 11 8.725 6 9.425 2 8.850 11 35.575 8
2019-01-11 St Jude Benefit Meet Gym Kinetics Gymnastics 1C XP Sr B 8.850 7 7.875 11 7.750 12 8.725 10 33.200 11
2018-12-14 2018 Aspire Classic Gym Kinetics Gymnastics 5B XP Older 8.700 11 8.450 8 9.450 2T 8.775 16 35.375 6T
2018-04-06 XCEL State Championships Gym Kinetics Gymnastics 7B XG Sr D 8.725 6T 9.600 2 9.275 4T 9.200 8T 36.800 4
2018-02-23 Kinetic Classic Gym Kinetics Gymnastics 6 XG Older 9.150 21 9.400 9* 9.300 10 9.200 43 37.050 12T
2018-02-03 Midwest Games Gym Kinetics Gymnastics 2 XG SR 9.325 3 8.500 10 9.350 2 9.300 7T 36.475 4
2018-01-19 2018 Bravo Classic Gym Kinetics Gymnastics 1B XG Sr 9.500 4 8.950 8 9.575 2 8.825 9 36.850 5
2017-12-15 2017 Aspire Classic Gym Kinetics Gymnastics 10B XG Sr B 9.200 1 9.500 4 8.800 7 9.400 6 36.900 4
2017-03-10 2017 Illinois Level 4 State Championships Gym Kinetics Gymnastics 7 4 Sr E 8.575 16T 9.050 8 9.300 7 8.800 17 35.725 10
2017-02-24 Kinetic Classic Gym Kinetics Gymnastics 5,6 4 All Ages 8.450 94T 9.000 56T 9.250 41T 8.650 88T 35.350 72
2017-02-09 Hal's Harley-Davidson Invite Gym Kinetics Gymnastics O10 4 12+ yrs. 8.750 1 8.950 1 9.100 2 8.550 2T 35.350 1
2017-01-13 St Jude Benefit Meet Gym Kinetics Gymnastics 4A 4 Sr B 8.200 10 9.200 4 9.050 9 8.100 16 34.550 9
2016-12-16 2016 Aspire Classic Gym Kinetics Gymnastics 7 4 Older 8.750 10 8.400 18 9.350 9 8.375 18T 34.875 15
2016-03-04 2016 Illinois Level 3 State Championships Gym Kinetics Gymnastics 3 Senior-F 9.375 10 9.050 9 8.700 10 8.850 17 35.975 10
2016-02-20 Big Classic Gym Kinetics Gymnastics 4B 3 Child C 9.125 12 9.000 7T 8.900 11T 8.875 13 35.900 10
2016-01-22 2016 Honkytonk Classic Gym Kinetics Gymnastics 02 3 SrB 9.200 7 8.800 8 8.400 8 8.900 8 35.300 8
2015-12-18 2015 Aspire Classic Gym Kinetics Gymnastics 11 3 Older 9.200 12T 9.225 5T 9.250 7T 9.125 11T 36.800 5T
Get your scores on
a t-shirt, pin, or hoodie

www.lazysuits.com